Time;durP1;ratioP1;P1;durP2;ratioP2;P2;SDS_P1;SDS_P2;PMS_P1;PMS_P2;Temp;Humidity;BMP_temperature;BMP_pressure;BME280_temperature;BME280_humidity;BME280_pressure;Samples;Min_cycle;Max_cycle;Signal;HPM_P1;HPM_P2
2021/10/27 00:01:10;;;;;;;30.15;22.33;;;13.60;99.90;;;;;;4929536;29;20040;-62
2021/10/27 00:03:36;;;;;;;32.47;22.77;;;13.60;99.90;;;;;;4928290;29;20044;-62
2021/10/27 00:06:02;;;;;;;32.30;22.75;;;13.50;99.90;;;;;;4928328;29;20048;-62
2021/10/27 00:08:28;;;;;;;29.35;22.60;;;13.50;99.90;;;;;;4911714;29;20134;-62
2021/10/27 00:10:54;;;;;;;30.25;21.55;;;13.60;99.90;;;;;;4911486;29;20087;-62
2021/10/27 00:13:20;;;;;;;32.75;22.05;;;13.60;99.90;;;;;;4942963;29;20111;-62
2021/10/27 00:15:46;;;;;;;33.47;23.30;;;13.60;99.90;;;;;;4929827;29;20505;-62
2021/10/27 00:18:12;;;;;;;34.13;22.75;;;13.60;99.90;;;;;;4911476;29;20082;-62
2021/10/27 00:20:38;;;;;;;31.70;22.35;;;13.50;99.90;;;;;;4911287;29;20078;-62
2021/10/27 00:23:04;;;;;;;31.63;22.80;;;13.60;99.90;;;;;;4943901;29;20044;-62
2021/10/27 00:25:30;;;;;;;34.92;22.38;;;13.60;99.90;;;;;;4911437;29;20050;-62
2021/10/27 00:27:56;;;;;;;32.63;22.48;;;13.60;99.90;;;;;;4943322;29;20144;-62
2021/10/27 00:30:22;;;;;;;31.13;21.40;;;13.60;99.90;;;;;;4942749;29;20052;-62
2021/10/27 00:32:48;;;;;;;32.53;22.60;;;13.50;99.90;;;;;;4942520;29;20087;-62
2021/10/27 00:35:13;;;;;;;31.60;22.38;;;13.50;99.90;;;;;;4911044;29;20059;-62
2021/10/27 00:37:39;;;;;;;35.30;22.95;;;13.50;99.90;;;;;;4928167;29;20132;-62
2021/10/27 00:40:06;;;;;;;30.42;22.40;;;13.40;99.90;;;;;;4942152;29;20048;-62
2021/10/27 00:42:32;;;;;;;32.03;23.13;;;13.50;99.90;;;;;;4910198;29;20072;-62
2021/10/27 00:44:58;;;;;;;29.15;22.88;;;13.60;99.90;;;;;;4928615;29;20044;-62
2021/10/27 00:47:24;;;;;;;31.33;22.70;;;13.50;99.90;;;;;;4929218;29;20489;-62
2021/10/27 00:49:49;;;;;;;33.30;22.67;;;13.50;99.90;;;;;;4928330;29;20084;-62
2021/10/27 00:52:17;;;;;;;31.85;23.80;;;13.70;99.90;;;;;;4928576;29;20055;-62
2021/10/27 00:54:48;;;;;;;32.20;22.63;;;13.50;99.90;;;;;;4911981;29;20063;-62
2021/10/27 00:57:16;;;;;;;32.55;21.83;;;13.50;99.90;;;;;;4927969;29;20055;-62
2021/10/27 00:59:45;;;;;;;32.97;21.65;;;13.50;99.90;;;;;;4927691;29;20111;-62
2021/10/27 01:02:13;;;;;;;35.35;22.33;;;13.60;99.90;;;;;;4911190;29;20489;-62
2021/10/27 01:04:39;;;;;;;35.35;23.98;;;13.70;99.90;;;;;;4911459;29;20131;-62
2021/10/27 01:07:05;;;;;;;31.73;23.60;;;13.60;99.90;;;;;;4911918;29;20070;-62
2021/10/27 01:09:31;;;;;;;31.30;22.80;;;13.50;99.90;;;;;;4928462;29;20486;-62
2021/10/27 01:11:59;;;;;;;32.13;23.25;;;13.40;99.90;;;;;;4908629;29;20052;-62
2021/10/27 01:14:35;;;;;;;36.80;23.27;;;13.40;99.90;;;;;;4927671;29;20079;-62
2021/10/27 01:17:01;;;;;;;31.55;22.95;;;13.30;99.90;;;;;;4911572;29;20152;-62
2021/10/27 01:19:27;;;;;;;36.65;23.77;;;13.30;99.90;;;;;;4922694;29;20084;-62
2021/10/27 01:21:53;;;;;;;33.45;22.92;;;13.60;99.90;;;;;;4911396;29;20052;-62
2021/10/27 01:24:19;;;;;;;33.65;23.92;;;13.40;99.90;;;;;;4941766;29;20084;-62
2021/10/27 01:26:44;;;;;;;33.05;23.58;;;13.50;99.90;;;;;;4910439;29;20048;-62
2021/10/27 01:29:10;;;;;;;34.60;23.90;;;13.40;99.90;;;;;;4941896;29;20465;-62
2021/10/27 01:31:36;;;;;;;31.27;23.70;;;13.30;99.90;;;;;;4927756;29;20044;-62
2021/10/27 01:34:01;;;;;;;37.88;23.77;;;13.30;99.90;;;;;;4927044;29;20068;-62
2021/10/27 01:36:29;;;;;;;31.50;22.17;;;13.30;99.90;;;;;;4923239;29;20044;-62
2021/10/27 01:38:55;;;;;;;32.20;23.67;;;13.40;99.90;;;;;;4911465;29;20129;-62
2021/10/27 01:41:21;;;;;;;33.95;22.17;;;13.20;99.90;;;;;;4941997;29;20105;-62
2021/10/27 01:43:49;;;;;;;34.97;24.67;;;13.30;99.90;;;;;;4927036;29;20083;-62
2021/10/27 01:46:15;;;;;;;33.80;23.00;;;13.30;99.90;;;;;;4908379;29;20040;-62
2021/10/27 01:48:41;;;;;;;29.15;21.55;;;13.30;99.90;;;;;;4910054;29;20242;-62
2021/10/27 01:51:07;;;;;;;36.38;23.17;;;13.30;99.90;;;;;;4943449;29;20044;-62
2021/10/27 01:53:32;;;;;;;32.85;21.58;;;13.30;99.90;;;;;;4945577;29;20055;-62
2021/10/27 01:55:58;;;;;;;32.17;23.58;;;13.40;99.90;;;;;;4930529;29;20044;-62
2021/10/27 01:58:24;;;;;;;31.67;22.77;;;13.40;99.90;;;;;;4897025;29;20049;-62
2021/10/27 02:00:49;;;;;;;34.63;23.23;;;13.40;99.90;;;;;;4948378;29;20099;-62
2021/10/27 02:03:15;;;;;;;35.53;23.30;;;13.40;99.90;;;;;;4931578;29;20469;-62
2021/10/27 02:05:41;;;;;;;33.42;23.45;;;13.40;99.90;;;;;;4913634;29;20044;-62
2021/10/27 02:08:07;;;;;;;33.60;23.58;;;13.50;99.90;;;;;;4913426;29;20056;-62
2021/10/27 02:10:32;;;;;;;35.45;23.80;;;13.50;99.90;;;;;;4945421;29;20048;-62
2021/10/27 02:12:58;;;;;;;34.10;23.88;;;13.40;99.90;;;;;;4945130;29;20056;-62
2021/10/27 02:15:24;;;;;;;34.22;24.80;;;13.50;99.90;;;;;;4913208;29;20113;-62
2021/10/27 02:17:50;;;;;;;35.90;24.38;;;13.50;99.90;;;;;;4898289;29;20111;-62
2021/10/27 02:20:16;;;;;;;35.67;23.75;;;13.50;99.90;;;;;;4931380;29;20040;-62
2021/10/27 02:22:42;;;;;;;32.85;23.73;;;13.60;99.90;;;;;;4930638;29;20162;-62
2021/10/27 02:25:08;;;;;;;36.03;24.40;;;13.60;99.90;;;;;;4930558;29;20070;-62
2021/10/27 02:27:34;;;;;;;35.08;26.00;;;13.50;99.90;;;;;;4913512;29;20055;-62
2021/10/27 02:29:59;;;;;;;40.85;24.42;;;13.60;99.90;;;;;;4944807;29;20048;-62
2021/10/27 02:32:25;;;;;;;38.20;24.92;;;13.50;99.90;;;;;;4913303;29;20103;-62
2021/10/27 02:34:51;;;;;;;39.67;25.27;;;13.60;99.90;;;;;;4914022;29;20048;-62
2021/10/27 02:37:17;;;;;;;34.08;24.88;;;13.60;99.90;;;;;;4913952;29;20063;-62
2021/10/27 02:39:43;;;;;;;37.65;23.98;;;13.60;99.90;;;;;;4913135;29;20048;-62
2021/10/27 02:42:08;;;;;;;35.15;22.50;;;13.60;99.90;;;;;;4930150;29;20072;-62
2021/10/27 02:44:36;;;;;;;29.52;21.92;;;13.70;99.90;;;;;;4929258;29;20040;-62
2021/10/27 02:47:02;;;;;;;33.67;22.23;;;13.80;99.90;;;;;;4931338;29;20119;-62
2021/10/27 02:49:28;;;;;;;31.85;22.30;;;13.70;99.90;;;;;;4913931;29;20052;-62
2021/10/27 02:51:54;;;;;;;30.38;21.35;;;13.70;99.90;;;;;;4944443;29;20048;-62
2021/10/27 02:54:19;;;;;;;37.05;22.95;;;13.80;99.90;;;;;;4913169;29;20044;-62
2021/10/27 02:56:46;;;;;;;34.05;21.27;;;13.70;99.90;;;;;;4929845;29;20088;-62
2021/10/27 02:59:12;;;;;;;39.42;21.02;;;13.70;99.90;;;;;;4913561;29;20505;-62
2021/10/27 03:01:37;;;;;;;33.88;20.17;;;13.70;99.90;;;;;;4912850;29;20066;-62
2021/10/27 03:04:04;;;;;;;31.23;19.73;;;13.80;99.90;;;;;;4908724;29;20501;-62
2021/10/27 03:06:30;;;;;;;30.65;18.27;;;13.80;99.90;;;;;;4913409;29;20080;-62
2021/10/27 03:08:55;;;;;;;28.40;18.88;;;13.80;99.90;;;;;;4913196;29;20153;-62
2021/10/27 03:11:21;;;;;;;25.92;17.23;;;13.70;99.90;;;;;;4944071;29;20108;-62
2021/10/27 03:13:47;;;;;;;25.25;17.10;;;13.70;99.90;;;;;;4929762;29;20543;-62
2021/10/27 03:16:12;;;;;;;25.92;16.05;;;13.70;99.90;;;;;;4929166;29;20044;-62
2021/10/27 03:18:38;;;;;;;26.60;15.13;;;13.80;99.90;;;;;;4929455;29;20054;-62
2021/10/27 03:21:04;;;;;;;23.63;14.52;;;13.80;99.90;;;;;;4930219;29;20053;-62
2021/10/27 03:23:29;;;;;;;28.80;14.70;;;13.80;99.90;;;;;;4930596;29;20149;-62
2021/10/27 03:25:55;;;;;;;20.00;13.68;;;13.90;99.90;;;;;;4930273;29;20187;-62
2021/10/27 03:28:21;;;;;;;18.40;13.57;;;13.90;99.90;;;;;;4930526;29;20047;-62
2021/10/27 03:30:47;;;;;;;23.50;12.77;;;14.00;99.90;;;;;;4929343;29;20532;-62
2021/10/27 03:33:13;;;;;;;23.27;12.77;;;14.00;99.90;;;;;;4911756;29;20032;-62
2021/10/27 03:35:39;;;;;;;21.80;12.32;;;14.00;99.90;;;;;;4929245;29;20102;-62
2021/10/27 03:38:05;;;;;;;21.85;11.85;;;14.10;99.90;;;;;;4928800;29;20040;-62
2021/10/27 03:40:31;;;;;;;19.23;10.90;;;14.00;99.90;;;;;;4929222;29;20502;-62
2021/10/27 03:42:57;;;;;;;22.40;13.10;;;14.10;99.90;;;;;;4944102;29;20112;-62
2021/10/27 03:45:22;;;;;;;30.02;11.60;;;14.10;99.90;;;;;;4912780;29;20048;-62
2021/10/27 03:47:49;;;;;;;19.15;11.15;;;14.10;99.90;;;;;;4912992;29;20052;-62
2021/10/27 03:50:15;;;;;;;20.63;10.48;;;14.10;99.90;;;;;;4912996;29;20059;-62
2021/10/27 03:52:44;;;;;;;24.83;10.75;;;14.10;99.90;;;;;;4912920;29;20409;-62
2021/10/27 03:55:11;;;;;;;19.30;10.13;;;14.10;99.90;;;;;;4929596;29;20104;-62
2021/10/27 03:57:37;;;;;;;18.10;10.00;;;14.10;99.90;;;;;;4928500;29;20051;-62
2021/10/27 04:00:05;;;;;;;22.80;10.02;;;14.10;99.90;;;;;;4911584;29;20112;-62
2021/10/27 04:02:31;;;;;;;16.88;8.70;;;14.10;99.90;;;;;;4932425;29;20112;-62
2021/10/27 04:04:57;;;;;;;18.80;8.70;;;14.10;99.90;;;;;;4928753;29;20043;-62
2021/10/27 04:07:23;;;;;;;16.85;8.90;;;14.20;99.90;;;;;;4928296;29;20098;-62
2021/10/27 04:09:48;;;;;;;14.70;8.13;;;14.20;99.90;;;;;;4928366;29;20174;-62
2021/10/27 04:12:14;;;;;;;14.90;8.32;;;14.20;99.90;;;;;;4943165;29;20055;-62
2021/10/27 04:14:41;;;;;;;17.45;8.10;;;14.20;99.90;;;;;;4927872;29;20056;-61
2021/10/27 04:17:06;;;;;;;17.20;8.02;;;14.20;99.90;;;;;;4910617;29;20056;-62
2021/10/27 04:19:34;;;;;;;16.13;7.50;;;14.20;99.90;;;;;;4943111;29;20099;-62
2021/10/27 04:22:01;;;;;;;15.73;7.88;;;14.20;99.90;;;;;;4928488;29;20048;-62
2021/10/27 04:24:26;;;;;;;16.92;8.02;;;14.20;99.90;;;;;;4911295;29;20123;-62
2021/10/27 04:26:53;;;;;;;16.20;8.57;;;14.10;99.90;;;;;;4942656;29;20134;-62
2021/10/27 04:29:19;;;;;;;14.02;7.95;;;14.20;99.90;;;;;;4910084;29;20059;-62
2021/10/27 04:31:45;;;;;;;18.10;8.82;;;14.20;99.90;;;;;;4910853;29;20084;-62
2021/10/27 04:34:11;;;;;;;14.48;7.95;;;14.20;99.90;;;;;;4927832;29;20052;-62
2021/10/27 04:36:37;;;;;;;15.98;8.43;;;14.30;99.90;;;;;;4928293;29;20044;-62
2021/10/27 04:39:03;;;;;;;19.65;8.70;;;14.30;99.90;;;;;;4941932;29;20060;-62
2021/10/27 04:41:29;;;;;;;19.27;8.82;;;14.20;99.90;;;;;;4928117;29;20399;-62
2021/10/27 04:43:54;;;;;;;19.90;8.80;;;14.20;99.90;;;;;;4942881;29;20051;-62
2021/10/27 04:46:20;;;;;;;16.48;8.90;;;14.10;99.90;;;;;;4928132;29;20100;-62
2021/10/27 04:48:46;;;;;;;18.00;8.38;;;14.20;99.90;;;;;;4928109;29;20052;-62
2021/10/27 04:51:12;;;;;;;21.70;9.02;;;14.20;99.90;;;;;;4928598;29;20072;-62
2021/10/27 04:53:37;;;;;;;13.48;8.60;;;14.20;99.90;;;;;;4928155;29;20051;-62
2021/10/27 04:56:03;;;;;;;17.73;8.40;;;14.20;99.90;;;;;;4923337;29;20145;-62
2021/10/27 04:58:30;;;;;;;15.73;8.73;;;14.20;99.90;;;;;;4927312;29;20073;-62
2021/10/27 05:00:56;;;;;;;22.60;9.52;;;14.20;99.90;;;;;;4907220;29;20474;-62
2021/10/27 05:03:22;;;;;;;16.23;8.98;;;14.10;99.90;;;;;;4893708;29;20497;-62
2021/10/27 05:05:49;;;;;;;17.80;9.90;;;14.10;99.90;;;;;;4926908;29;20077;-62
2021/10/27 05:08:17;;;;;;;19.67;9.43;;;14.10;99.90;;;;;;4910488;29;20080;-62
2021/10/27 05:10:43;;;;;;;18.63;9.25;;;14.00;99.90;;;;;;4926581;29;20059;-61
2021/10/27 05:13:10;;;;;;;20.70;10.60;;;13.90;99.90;;;;;;4893126;29;20057;-63
2021/10/27 05:15:35;;;;;;;15.05;8.65;;;13.90;99.90;;;;;;4906530;29;20482;-63
2021/10/27 05:18:02;;;;;;;15.48;9.00;;;14.00;99.90;;;;;;4927527;29;20118;-62
2021/10/27 05:20:28;;;;;;;20.80;9.75;;;14.00;99.90;;;;;;4906627;29;20476;-62
2021/10/27 05:22:54;;;;;;;18.88;9.88;;;14.00;99.90;;;;;;4904847;29;20466;-64
2021/10/27 05:25:19;;;;;;;17.77;8.80;;;14.00;99.90;;;;;;4921741;29;20084;-63
2021/10/27 05:27:45;;;;;;;24.27;10.05;;;14.00;99.90;;;;;;4936131;29;20052;-63
2021/10/27 05:30:11;;;;;;;22.92;9.95;;;13.90;99.90;;;;;;4925869;29;20548;-63
2021/10/27 05:32:37;;;;;;;17.80;9.85;;;14.00;99.90;;;;;;4918341;29;20540;-63
2021/10/27 05:35:03;;;;;;;21.40;11.30;;;13.90;99.90;;;;;;4918354;29;20104;-63
2021/10/27 05:37:29;;;;;;;22.05;11.45;;;13.90;99.90;;;;;;4895000;29;20048;-63
2021/10/27 05:39:54;;;;;;;15.10;11.32;;;13.80;99.90;;;;;;4926916;29;20212;-63
2021/10/27 05:42:21;;;;;;;16.85;12.00;;;14.00;99.90;;;;;;4920850;29;20056;-63
2021/10/27 05:44:50;;;;;;;14.93;11.18;;;14.00;99.90;;;;;;4901937;29;20098;-63
2021/10/27 05:47:16;;;;;;;20.98;12.98;;;14.00;99.90;;;;;;4915876;29;20048;-62
2021/10/27 05:49:51;;;;;;;18.52;12.57;;;14.00;99.90;;;;;;4898190;29;20076;-63
2021/10/27 05:57:44;;;;;;;24.67;13.68;;;13.90;99.90;;;;;;4892666;29;20064;-63
2021/10/27 06:00:10;;;;;;;20.38;13.45;;;13.90;99.90;;;;;;4877975;29;20045;-63
2021/10/27 06:02:37;;;;;;;20.00;13.68;;;13.90;99.90;;;;;;4891809;29;20056;-63
2021/10/27 06:05:03;;;;;;;23.77;13.93;;;13.90;99.90;;;;;;4873201;29;20537;-63
2021/10/27 06:07:31;;;;;;;17.25;12.18;;;13.90;99.90;;;;;;4902321;29;20084;-63
2021/10/27 06:09:57;;;;;;;20.20;12.95;;;14.00;99.90;;;;;;4897192;29;20056;-62
2021/10/27 06:12:23;;;;;;;20.52;13.05;;;14.10;99.90;;;;;;4894380;29;20052;-64
2021/10/27 06:14:49;;;;;;;21.90;12.80;;;14.10;99.90;;;;;;4898980;29;20059;-63
2021/10/27 06:17:15;;;;;;;16.23;11.38;;;14.20;99.90;;;;;;4904109;29;20052;-61
2021/10/27 06:19:41;;;;;;;19.17;11.77;;;14.00;99.90;;;;;;4891475;29;20128;-61
2021/10/27 06:22:09;;;;;;;19.13;12.57;;;14.00;99.90;;;;;;4896879;29;20064;-61
2021/10/27 06:24:35;;;;;;;22.02;11.70;;;14.20;99.90;;;;;;4897885;29;20523;-61
2021/10/27 06:27:02;;;;;;;18.63;10.95;;;14.20;99.90;;;;;;4909308;29;20120;-61
2021/10/27 06:29:43;;;;;;;21.67;10.35;;;14.20;99.90;;;;;;4878117;29;20112;-62
2021/10/27 06:34:46;;;;;;;16.00;10.50;;;14.20;99.90;;;;;;4928222;29;20048;-61
2021/10/27 06:48:11;;;;;;;18.23;11.27;;;14.20;99.90;;;;;;4929807;29;20702;-61
2021/10/27 06:50:37;;;;;;;20.35;10.90;;;14.10;99.90;;;;;;4907404;29;20048;-62
2021/10/27 06:53:03;;;;;;;19.27;11.13;;;14.10;99.90;;;;;;4914005;29;20059;-61
2021/10/27 06:55:32;;;;;;;21.08;11.02;;;14.00;99.90;;;;;;4922296;29;20052;-61
2021/10/27 06:57:58;;;;;;;19.25;11.43;;;14.10;99.90;;;;;;4928695;29;20136;-62
2021/10/27 07:00:39;;;;;;;22.00;11.35;;;14.30;99.90;;;;;;4920247;29;20067;-62
2021/10/27 07:03:16;;;;;;;22.25;12.60;;;14.10;99.90;;;;;;4910194;29;20132;-61
2021/10/27 07:16:49;;;;;;;19.25;15.48;;;13.90;99.90;;;;;;4909366;29;20100;-61
2021/10/27 07:19:15;;;;;;;20.05;15.55;;;13.90;99.90;;;;;;4914106;29;20048;-61
2021/10/27 07:21:41;;;;;;;22.90;15.25;;;13.90;99.90;;;;;;4902975;29;20228;-61
2021/10/27 07:24:06;;;;;;;19.98;16.20;;;14.00;99.90;;;;;;4928083;29;20044;-62
2021/10/27 07:26:32;;;;;;;23.15;16.48;;;14.00;99.90;;;;;;4927444;29;20883;-62
2021/10/27 07:28:58;;;;;;;21.33;15.48;;;14.00;99.90;;;;;;4936721;29;20065;-64
2021/10/27 07:31:25;;;;;;;19.95;14.50;;;14.10;99.90;;;;;;4925133;29;20079;-62
2021/10/27 07:34:03;;;;;;;21.70;16.17;;;14.30;99.90;;;;;;4922315;29;20055;-61
2021/10/27 07:36:42;;;;;;;23.20;16.30;;;14.10;99.90;;;;;;4927244;29;20512;-62
2021/10/27 07:42:12;;;;;;;18.60;16.02;;;14.00;99.90;;;;;;4812140;29;20050;-63
2021/10/27 07:44:38;;;;;;;19.05;16.08;;;14.00;99.90;;;;;;4824200;29;20050;-63
2021/10/27 07:47:04;;;;;;;20.33;15.18;;;14.00;99.90;;;;;;4832819;29;20050;-62
2021/10/27 07:49:30;;;;;;;20.48;16.95;;;14.10;99.90;;;;;;4831791;29;20836;-65
2021/10/27 07:51:55;;;;;;;21.23;16.98;;;14.10;99.90;;;;;;4817351;29;20109;-64
2021/10/27 07:54:21;;;;;;;22.33;15.77;;;14.10;99.90;;;;;;4829127;29;20069;-63
2021/10/27 07:56:47;;;;;;;21.42;16.27;;;14.10;99.90;;;;;;4835226;29;20058;-64
2021/10/27 07:59:15;;;;;;;21.95;16.15;;;14.10;99.90;;;;;;4827810;29;20050;-63
2021/10/27 08:01:40;;;;;;;21.50;17.08;;;14.10;99.90;;;;;;4768473;29;20225;-64
2021/10/27 08:04:06;;;;;;;21.60;15.45;;;14.00;99.90;;;;;;4818072;29;20153;-65
2021/10/27 08:06:32;;;;;;;20.27;17.00;;;14.10;99.90;;;;;;4811684;29;20153;-64
2021/10/27 08:08:57;;;;;;;20.40;17.10;;;14.10;99.90;;;;;;4820603;29;20096;-63
2021/10/27 08:11:26;;;;;;;21.05;17.02;;;14.10;99.90;;;;;;4830939;29;20109;-64
2021/10/27 08:13:52;;;;;;;19.10;16.35;;;14.10;99.90;;;;;;4881738;29;20596;-64
2021/10/27 08:16:19;;;;;;;21.67;15.48;;;14.30;99.90;;;;;;4892837;29;20040;-64
2021/10/27 08:18:45;;;;;;;19.88;14.38;;;14.20;99.90;;;;;;4908323;29;20060;-64
2021/10/27 08:21:11;;;;;;;18.77;14.55;;;14.40;99.90;;;;;;4885063;29;20512;-63
2021/10/27 08:23:40;;;;;;;18.55;14.73;;;14.50;99.90;;;;;;4893485;29;20052;-63
2021/10/27 08:26:09;;;;;;;16.38;14.00;;;14.40;99.90;;;;;;4930359;29;20052;-64
2021/10/27 08:28:40;;;;;;;19.97;15.03;;;14.30;99.90;;;;;;4929228;29;20055;-64
2021/10/27 08:36:07;;;;;;;15.93;14.13;;;14.10;99.90;;;;;;4915188;29;20055;-64
2021/10/27 08:38:34;;;;;;;18.95;14.60;;;14.00;99.90;;;;;;4904902;29;20067;-63
2021/10/27 08:41:02;;;;;;;18.85;14.40;;;14.00;99.90;;;;;;4915572;29;20176;-62
2021/10/27 08:43:29;;;;;;;19.67;14.60;;;14.00;99.90;;;;;;4909139;29;20596;-63
2021/10/27 08:45:56;;;;;;;20.25;14.25;;;14.10;99.90;;;;;;4901517;29;20041;-63
2021/10/27 08:48:22;;;;;;;16.55;13.68;;;14.10;99.90;;;;;;4907514;29;20055;-63
2021/10/27 08:50:49;;;;;;;21.13;13.02;;;14.00;99.90;;;;;;4903798;29;20060;-63
2021/10/27 08:53:16;;;;;;;20.08;13.18;;;14.10;99.90;;;;;;4913028;29;20063;-63
2021/10/27 08:55:45;;;;;;;16.52;13.18;;;14.20;99.90;;;;;;4889140;29;20052;-64
2021/10/27 08:58:14;;;;;;;22.58;14.90;;;14.50;99.90;;;;;;4917725;29;20047;-63
2021/10/27 09:00:54;;;;;;;19.58;13.32;;;14.20;99.90;;;;;;4918523;29;20402;-64
2021/10/27 09:14:58;;;;;;;17.63;12.25;;;14.20;99.90;;;;;;4904657;29;20056;-64
2021/10/27 09:39:45;;;;;;;17.98;9.65;;;14.40;99.90;;;;;;4905001;29;20331;-63
2021/10/27 09:55:27;;;;;;;15.38;9.30;;;14.30;99.90;;;;;;4902561;29;20066;-62
2021/10/27 10:06:48;;;;;;;15.32;8.23;;;14.30;99.90;;;;;;4894031;29;20507;-63
2021/10/27 10:09:15;;;;;;;13.93;8.88;;;14.40;99.90;;;;;;4900172;29;20048;-64
2021/10/27 10:11:41;;;;;;;11.00;8.13;;;14.40;99.90;;;;;;4896887;29;20136;-64
2021/10/27 10:14:10;;;;;;;15.13;7.45;;;14.50;99.90;;;;;;4915231;29;20064;-63
2021/10/27 10:16:40;;;;;;;10.27;6.65;;;14.70;99.90;;;;;;4890330;29;20045;-64
2021/10/27 10:19:13;;;;;;;13.52;6.72;;;14.70;99.90;;;;;;4905206;29;20123;-64
2021/10/27 10:21:47;;;;;;;15.07;7.45;;;14.70;99.90;;;;;;4909333;29;20105;-64
2021/10/27 10:24:21;;;;;;;12.32;6.65;;;14.70;99.90;;;;;;4913870;29;20064;-63
2021/10/27 10:26:52;;;;;;;12.60;7.93;;;14.80;99.90;;;;;;4915084;29;20539;-63
2021/10/27 10:29:41;;;;;;;10.68;5.70;;;14.70;99.90;;;;;;4903638;29;20086;-63
2021/10/27 10:32:26;;;;;;;8.55;6.15;;;14.70;99.90;;;;;;4910566;29;20076;-63
2021/10/27 10:34:59;;;;;;;11.82;5.78;;;14.80;99.90;;;;;;4905900;29;20060;-63
2021/10/27 10:37:41;;;;;;;10.70;6.50;;;14.90;99.90;;;;;;4905265;29;20407;-63
2021/10/27 10:40:47;;;;;;;10.65;5.82;;;15.00;99.90;;;;;;4927545;29;20048;-63
2021/10/27 11:03:08;;;;;;;10.20;5.72;;;15.20;99.90;;;;;;4887762;29;20531;-63
2021/10/27 11:40:18;;;;;;;11.27;5.53;;;15.20;99.90;;;;;;4906411;29;20059;-63
2021/10/27 11:42:48;;;;;;;10.18;4.78;;;15.20;99.90;;;;;;4901260;29;20125;-63
2021/10/27 11:48:09;;;;;;;8.40;4.47;;;15.20;99.90;;;;;;4904238;29;20080;-63
2021/10/27 11:50:38;;;;;;;7.15;4.43;;;15.40;99.90;;;;;;4909167;29;20119;-63
2021/10/27 11:53:06;;;;;;;8.63;4.73;;;15.30;99.90;;;;;;4904413;29;20049;-63
2021/10/27 11:55:34;;;;;;;9.60;4.53;;;15.40;99.90;;;;;;4911978;29;20056;-63
2021/10/27 11:58:01;;;;;;;14.38;5.55;;;15.40;99.90;;;;;;4909464;29;20064;-63
2021/10/27 12:00:33;;;;;;;10.85;5.32;;;15.40;99.90;;;;;;4927569;29;20580;-66
2021/10/27 12:03:07;;;;;;;7.72;4.95;;;15.50;99.90;;;;;;4904200;29;20080;-66
2021/10/27 12:05:48;;;;;;;12.40;4.80;;;15.30;99.90;;;;;;4930339;29;20103;-66
2021/10/27 12:08:33;;;;;;;8.52;5.35;;;15.30;99.90;;;;;;4938083;29;20081;-65
2021/10/27 12:11:31;;;;;;;9.93;5.05;;;15.30;99.90;;;;;;4924191;29;20058;-66
2021/10/27 12:19:28;;;;;;;10.10;4.90;;;15.50;99.90;;;;;;4909906;29;20044;-66
2021/10/27 12:22:09;;;;;;;13.38;4.88;;;15.50;99.90;;;;;;4899161;29;20048;-66
2021/10/27 12:24:39;;;;;;;8.85;4.70;;;15.50;99.90;;;;;;4904699;29;20057;-66
2021/10/27 12:27:28;;;;;;;9.90;4.90;;;15.40;99.90;;;;;;4918991;29;20043;-66
2021/10/27 12:29:57;;;;;;;11.38;5.50;;;15.40;99.90;;;;;;4899514;29;20094;-66
2021/10/27 12:32:25;;;;;;;8.20;4.35;;;15.40;99.90;;;;;;4910974;29;20658;-66
2021/10/27 12:34:51;;;;;;;7.22;4.63;;;15.50;99.90;;;;;;4906098;29;20060;-66
2021/10/27 12:37:34;;;;;;;9.13;4.60;;;15.60;99.90;;;;;;4911356;29;20066;-66
2021/10/27 12:40:27;;;;;;;10.52;5.22;;;15.70;99.90;;;;;;4905691;29;20055;-65
2021/10/27 12:43:14;;;;;;;9.60;5.50;;;15.50;99.90;;;;;;4904159;29;20052;-66
2021/10/27 12:45:49;;;;;;;8.70;4.32;;;15.50;99.90;;;;;;4910648;29;20055;-66
2021/10/27 12:48:22;;;;;;;10.23;4.78;;;15.50;99.90;;;;;;4917934;29;20052;-65
2021/10/27 12:51:05;;;;;;;9.10;4.82;;;15.50;99.90;;;;;;4921368;29;20107;-65
2021/10/27 12:53:37;;;;;;;8.40;4.03;;;15.50;99.90;;;;;;4905934;29;20080;-65
2021/10/27 12:56:15;;;;;;;9.52;5.35;;;15.60;99.90;;;;;;4891958;29;20093;-63
2021/10/27 12:58:50;;;;;;;10.45;4.85;;;15.60;99.90;;;;;;4886519;29;20096;-64
2021/10/27 13:04:35;;;;;;;11.77;5.05;;;15.40;99.90;;;;;;4894179;29;20052;-64
2021/10/27 13:07:09;;;;;;;10.48;4.80;;;15.30;99.90;;;;;;4899487;29;20057;-63
2021/10/27 13:12:39;;;;;;;10.25;5.80;;;15.30;99.90;;;;;;4890871;29;20072;-63
2021/10/27 13:15:31;;;;;;;8.75;4.93;;;15.40;99.90;;;;;;4885536;29;20100;-63
2021/10/27 13:31:50;;;;;;;8.45;4.10;;;15.50;99.90;;;;;;4818164;29;20062;-63
2021/10/27 13:34:16;;;;;;;8.80;3.92;;;15.50;99.90;;;;;;4821518;29;20059;-63
2021/10/27 13:36:42;;;;;;;8.27;4.07;;;15.50;99.90;;;;;;4816182;29;20135;-64
2021/10/27 13:39:08;;;;;;;9.98;4.22;;;15.60;99.90;;;;;;4818307;29;20645;-64
2021/10/27 13:41:35;;;;;;;7.15;4.05;;;15.50;99.90;;;;;;4836837;29;20046;-64
2021/10/27 13:44:15;;;;;;;9.38;3.80;;;15.40;99.90;;;;;;4802678;29;20119;-64
2021/10/27 13:49:39;;;;;;;7.15;3.70;;;15.30;99.90;;;;;;4828095;29;19957;-63
2021/10/27 14:06:03;;;;;;;5.63;3.08;;;15.60;99.90;;;;;;4880526;29;20041;-63
2021/10/27 14:19:42;;;;;;;6.70;2.42;;;15.50;99.90;;;;;;4889895;29;20060;-63
2021/10/27 15:25:06;;;;;;;6.80;2.00;;;14.90;99.90;;;;;;4824063;29;20062;-64
2021/10/27 15:41:08;;;;;;;4.43;2.67;;;14.80;99.90;;;;;;4899537;29;20057;-64
2021/10/27 15:51:58;;;;;;;4.13;2.85;;;14.70;99.90;;;;;;4888029;29;20131;-64
2021/10/27 15:54:24;;;;;;;7.68;3.72;;;14.70;99.90;;;;;;4920084;29;20056;-68
2021/10/27 15:56:50;;;;;;;6.40;3.63;;;14.70;99.90;;;;;;4917305;29;20055;-65
2021/10/27 15:59:17;;;;;;;5.78;3.05;;;14.60;99.90;;;;;;4897417;29;20139;-65
2021/10/27 16:01:44;;;;;;;6.38;3.85;;;14.70;99.90;;;;;;4914092;29;20056;-71
2021/10/27 16:04:10;;;;;;;7.00;3.40;;;14.60;99.90;;;;;;4906519;29;20057;-65
2021/10/27 16:06:44;;;;;;;8.52;3.72;;;14.60;99.90;;;;;;4908304;29;20092;-64
2021/10/27 16:09:10;;;;;;;7.32;3.83;;;14.70;99.90;;;;;;4902653;29;20102;-65
2021/10/27 16:11:37;;;;;;;6.10;3.35;;;14.70;99.90;;;;;;4907814;29;20040;-64
2021/10/27 16:14:05;;;;;;;6.82;3.22;;;14.60;99.90;;;;;;4889143;29;20048;-62
2021/10/27 16:16:31;;;;;;;5.18;3.25;;;14.70;99.90;;;;;;4890289;29;20083;-62
2021/10/27 16:18:58;;;;;;;8.07;3.80;;;14.70;99.90;;;;;;4903447;29;20048;-62
2021/10/27 16:21:24;;;;;;;6.85;3.58;;;14.60;99.90;;;;;;4904606;29;20049;-64
2021/10/27 16:23:50;;;;;;;6.50;3.40;;;14.60;99.90;;;;;;4912590;29;20404;-64
2021/10/27 16:26:16;;;;;;;7.50;3.65;;;14.60;99.90;;;;;;4908466;29;20053;-64
2021/10/27 16:28:43;;;;;;;8.10;4.22;;;14.50;99.90;;;;;;4914086;29;20048;-63
2021/10/27 16:31:08;;;;;;;9.80;4.28;;;14.50;99.90;;;;;;4907028;29;20079;-63
2021/10/27 16:33:34;;;;;;;5.95;4.35;;;14.50;99.90;;;;;;4892546;29;20125;-63
2021/10/27 16:36:00;;;;;;;8.40;4.22;;;14.40;99.90;;;;;;4907664;29;20059;-63
2021/10/27 16:38:26;;;;;;;8.57;4.07;;;14.40;99.90;;;;;;4888486;29;20057;-63
2021/10/27 16:40:52;;;;;;;5.97;4.35;;;14.40;99.90;;;;;;4901792;29;20048;-63
2021/10/27 16:43:19;;;;;;;5.68;4.50;;;14.30;99.90;;;;;;4885311;29;20105;-64
2021/10/27 16:45:45;;;;;;;6.47;3.97;;;14.30;99.90;;;;;;4890336;29;20060;-64
2021/10/27 16:48:11;;;;;;;7.43;4.50;;;14.20;99.90;;;;;;4890120;29;20067;-63
2021/10/27 16:50:37;;;;;;;10.10;5.47;;;14.20;99.90;;;;;;4906319;29;20048;-63
2021/10/27 16:53:03;;;;;;;8.98;5.80;;;14.30;99.90;;;;;;4905120;29;20053;-63
2021/10/27 16:55:29;;;;;;;10.38;5.15;;;14.30;99.90;;;;;;4903044;29;20052;-64
2021/10/27 16:57:57;;;;;;;8.15;5.20;;;14.20;99.90;;;;;;4902089;29;20069;-64
2021/10/27 17:00:27;;;;;;;11.48;5.32;;;14.30;99.90;;;;;;4913121;29;20057;-64
2021/10/27 17:02:53;;;;;;;10.88;5.20;;;14.30;99.90;;;;;;4917072;29;20060;-64
2021/10/27 17:05:19;;;;;;;11.00;6.85;;;14.50;99.90;;;;;;4899723;29;20055;-63
2021/10/27 17:07:45;;;;;;;12.20;8.00;;;14.50;99.90;;;;;;4886650;29;20104;-64
2021/10/27 17:10:14;;;;;;;9.70;7.93;;;14.50;99.90;;;;;;4899042;29;20040;-63
2021/10/27 17:12:40;;;;;;;10.60;9.50;;;14.40;99.90;;;;;;4913859;29;20136;-64
2021/10/27 17:15:08;;;;;;;14.60;10.15;;;14.70;99.90;;;;;;4889724;29;20063;-63
2021/10/27 17:17:34;;;;;;;13.50;10.95;;;14.60;99.90;;;;;;4903486;29;20444;-63
2021/10/27 17:20:01;;;;;;;13.27;10.65;;;14.70;99.90;;;;;;4912300;29;20108;-64
2021/10/27 17:22:29;;;;;;;14.13;10.88;;;14.70;99.90;;;;;;4900587;29;20037;-63
2021/10/27 17:24:55;;;;;;;11.15;9.68;;;14.50;99.90;;;;;;4915131;29;20052;-63
2021/10/27 17:27:22;;;;;;;17.95;11.25;;;14.30;99.90;;;;;;4887245;29;20044;-63